Terminal Aerodrome Forecast
Issued by NWS Greer, SC

Home | Current Version | Previous Version | Text Only | Print | Product List | Glossary On
Versions: 1 2 3 4 5 6 7 8 9 10 11 12 13 14 15 16 17 18 19 20 21 22 23 24 25 26 27 28 29 30 31 32 33 34 35 36 37 38 39 40 41 42 43 44 45 46 47 48 49
000
FTUS42 KGSP 021700 RRA
TAFAVL
TAF
KAVL 021744Z 0218/0318 34008KT P6SM VCSH SCT035 BKN080
      TEMPO 0218/0219 3SM TSRA BKN035CB
     FM022100 29003KT P6SM VCTS BKN040CB
     FM030300 00000KT P6SM BKN050
     FM030700 00000KT 5SM BR BKN006
     FM031100 00000KT 1SM BR BKN003
     FM031300 33004KT P6SM SCT028=

USA.gov is the U.S. government's official web portal to all federal, state and local government web resources and services.